sensor_id;sensor_type;location;lat;lon;timestamp;P1;durP1;ratioP1;P2;durP2;ratioP2
22289;SDS011;11313;50.116;8.424;2023-04-24T00:00:19;11.40;;;10.77;;
22289;SDS011;11313;50.116;8.424;2023-04-24T00:02:45;8.48;;;7.97;;
22289;SDS011;11313;50.116;8.424;2023-04-24T00:05:13;3.33;;;3.10;;
22289;SDS011;11313;50.116;8.424;2023-04-24T00:07:40;5.78;;;5.38;;
22289;SDS011;11313;50.116;8.424;2023-04-24T00:10:07;8.27;;;7.70;;
22289;SDS011;11313;50.116;8.424;2023-04-24T00:12:33;4.07;;;3.78;;
22289;SDS011;11313;50.116;8.424;2023-04-24T00:14:59;3.10;;;2.90;;
22289;SDS011;11313;50.116;8.424;2023-04-24T00:17:24;13.57;;;12.77;;
22289;SDS011;11313;50.116;8.424;2023-04-24T00:19:50;16.55;;;15.55;;
22289;SDS011;11313;50.116;8.424;2023-04-24T00:22:16;31.90;;;29.95;;
22289;SDS011;11313;50.116;8.424;2023-04-24T00:24:42;21.15;;;19.95;;
22289;SDS011;11313;50.116;8.424;2023-04-24T00:27:08;4.00;;;3.70;;
22289;SDS011;11313;50.116;8.424;2023-04-24T00:29:33;6.72;;;6.32;;
22289;SDS011;11313;50.116;8.424;2023-04-24T00:31:59;4.68;;;4.43;;
22289;SDS011;11313;50.116;8.424;2023-04-24T00:34:25;4.32;;;4.13;;
22289;SDS011;11313;50.116;8.424;2023-04-24T00:36:50;41.67;;;39.33;;
22289;SDS011;11313;50.116;8.424;2023-04-24T00:39:17;29.15;;;27.50;;
22289;SDS011;11313;50.116;8.424;2023-04-24T00:41:44;2.88;;;2.72;;
22289;SDS011;11313;50.116;8.424;2023-04-24T00:44:10;11.27;;;10.55;;
22289;SDS011;11313;50.116;8.424;2023-04-24T00:46:36;2.70;;;2.50;;
22289;SDS011;11313;50.116;8.424;2023-04-24T00:49:01;5.95;;;5.63;;
22289;SDS011;11313;50.116;8.424;2023-04-24T00:51:27;18.92;;;17.83;;
22289;SDS011;11313;50.116;8.424;2023-04-24T00:53:53;8.80;;;8.30;;
22289;SDS011;11313;50.116;8.424;2023-04-24T00:56:18;99.82;;;94.00;;
22289;SDS011;11313;50.116;8.424;2023-04-24T00:58:44;43.05;;;40.60;;
22289;SDS011;11313;50.116;8.424;2023-04-24T01:01:10;130.70;;;123.00;;
22289;SDS011;11313;50.116;8.424;2023-04-24T01:03:36;101.78;;;95.80;;
22289;SDS011;11313;50.116;8.424;2023-04-24T01:06:03;41.45;;;39.03;;
22289;SDS011;11313;50.116;8.424;2023-04-24T01:08:30;66.05;;;62.15;;
22289;SDS011;11313;50.116;8.424;2023-04-24T01:10:55;68.63;;;64.57;;
22289;SDS011;11313;50.116;8.424;2023-04-24T01:13:22;25.45;;;24.05;;
22289;SDS011;11313;50.116;8.424;2023-04-24T01:15:48;68.93;;;64.97;;
22289;SDS011;11313;50.116;8.424;2023-04-24T01:18:14;421.17;;;392.95;;
22289;SDS011;11313;50.116;8.424;2023-04-24T01:20:40;33.38;;;31.45;;
22289;SDS011;11313;50.116;8.424;2023-04-24T01:23:08;29.08;;;27.45;;
22289;SDS011;11313;50.116;8.424;2023-04-24T01:25:34;27.40;;;25.90;;
22289;SDS011;11313;50.116;8.424;2023-04-24T01:28:00;45.90;;;43.35;;
22289;SDS011;11313;50.116;8.424;2023-04-24T01:30:26;61.42;;;57.95;;
22289;SDS011;11313;50.116;8.424;2023-04-24T01:32:55;73.32;;;69.07;;
22289;SDS011;11313;50.116;8.424;2023-04-24T01:35:21;46.78;;;44.10;;
22289;SDS011;11313;50.116;8.424;2023-04-24T01:37:46;40.53;;;38.15;;
22289;SDS011;11313;50.116;8.424;2023-04-24T01:40:12;160.55;;;151.07;;
22289;SDS011;11313;50.116;8.424;2023-04-24T01:42:37;76.82;;;72.32;;
22289;SDS011;11313;50.116;8.424;2023-04-24T01:45:03;137.85;;;129.88;;
22289;SDS011;11313;50.116;8.424;2023-04-24T01:47:30;132.10;;;124.47;;
22289;SDS011;11313;50.116;8.424;2023-04-24T01:49:56;85.05;;;80.22;;
22289;SDS011;11313;50.116;8.424;2023-04-24T01:52:22;91.18;;;86.03;;
22289;SDS011;11313;50.116;8.424;2023-04-24T01:54:48;52.58;;;49.63;;
22289;SDS011;11313;50.116;8.424;2023-04-24T01:57:14;142.00;;;133.82;;
22289;SDS011;11313;50.116;8.424;2023-04-24T01:59:41;67.53;;;63.47;;
22289;SDS011;11313;50.116;8.424;2023-04-24T02:02:07;113.05;;;106.65;;
22289;SDS011;11313;50.116;8.424;2023-04-24T02:04:33;199.65;;;187.98;;
22289;SDS011;11313;50.116;8.424;2023-04-24T02:07:01;144.25;;;135.90;;
22289;SDS011;11313;50.116;8.424;2023-04-24T02:09:27;106.55;;;100.50;;
22289;SDS011;11313;50.116;8.424;2023-04-24T02:11:52;167.63;;;157.82;;
22289;SDS011;11313;50.116;8.424;2023-04-24T02:14:18;185.82;;;175.18;;
22289;SDS011;11313;50.116;8.424;2023-04-24T02:16:43;94.50;;;89.05;;
22289;SDS011;11313;50.116;8.424;2023-04-24T02:19:09;122.53;;;115.47;;
22289;SDS011;11313;50.116;8.424;2023-04-24T02:21:35;124.25;;;117.10;;
22289;SDS011;11313;50.116;8.424;2023-04-24T02:24:00;76.72;;;72.38;;
22289;SDS011;11313;50.116;8.424;2023-04-24T02:26:26;7.90;;;7.45;;
22289;SDS011;11313;50.116;8.424;2023-04-24T02:28:52;113.88;;;107.40;;
22289;SDS011;11313;50.116;8.424;2023-04-24T02:31:17;39.40;;;37.17;;
22289;SDS011;11313;50.116;8.424;2023-04-24T02:33:42;72.10;;;68.03;;
22289;SDS011;11313;50.116;8.424;2023-04-24T02:36:08;99.55;;;93.88;;
22289;SDS011;11313;50.116;8.424;2023-04-24T02:38:33;48.47;;;45.72;;
22289;SDS011;11313;50.116;8.424;2023-04-24T02:40:59;20.50;;;19.40;;
22289;SDS011;11313;50.116;8.424;2023-04-24T02:43:25;128.82;;;121.28;;
22289;SDS011;11313;50.116;8.424;2023-04-24T02:45:51;276.20;;;259.67;;
22289;SDS011;11313;50.116;8.424;2023-04-24T02:48:16;133.48;;;125.75;;
22289;SDS011;11313;50.116;8.424;2023-04-24T02:50:42;141.23;;;133.00;;
22289;SDS011;11313;50.116;8.424;2023-04-24T02:53:07;54.47;;;51.33;;
22289;SDS011;11313;50.116;8.424;2023-04-24T02:55:33;104.47;;;98.45;;
22289;SDS011;11313;50.116;8.424;2023-04-24T02:57:59;36.15;;;34.00;;
22289;SDS011;11313;50.116;8.424;2023-04-24T03:00:24;55.72;;;52.50;;
22289;SDS011;11313;50.116;8.424;2023-04-24T03:02:50;57.47;;;54.10;;
22289;SDS011;11313;50.116;8.424;2023-04-24T03:05:15;89.13;;;84.03;;
22289;SDS011;11313;50.116;8.424;2023-04-24T03:07:41;68.93;;;64.97;;
22289;SDS011;11313;50.116;8.424;2023-04-24T03:10:07;81.35;;;76.75;;
22289;SDS011;11313;50.116;8.424;2023-04-24T03:12:32;70.82;;;66.82;;
22289;SDS011;11313;50.116;8.424;2023-04-24T03:14:58;48.85;;;45.97;;
22289;SDS011;11313;50.116;8.424;2023-04-24T03:17:24;76.13;;;71.78;;
22289;SDS011;11313;50.116;8.424;2023-04-24T03:19:50;86.47;;;81.55;;
22289;SDS011;11313;50.116;8.424;2023-04-24T03:22:15;84.75;;;79.97;;
22289;SDS011;11313;50.116;8.424;2023-04-24T03:24:41;142.25;;;133.90;;
22289;SDS011;11313;50.116;8.424;2023-04-24T03:27:06;120.47;;;113.43;;
22289;SDS011;11313;50.116;8.424;2023-04-24T03:29:32;109.05;;;102.75;;
22289;SDS011;11313;50.116;8.424;2023-04-24T03:31:57;120.43;;;113.47;;
22289;SDS011;11313;50.116;8.424;2023-04-24T03:34:22;85.68;;;80.88;;
22289;SDS011;11313;50.116;8.424;2023-04-24T03:36:48;84.28;;;79.43;;
22289;SDS011;11313;50.116;8.424;2023-04-24T03:39:13;126.60;;;119.18;;
22289;SDS011;11313;50.116;8.424;2023-04-24T03:41:39;47.53;;;44.78;;
22289;SDS011;11313;50.116;8.424;2023-04-24T03:44:05;48.47;;;45.72;;
22289;SDS011;11313;50.116;8.424;2023-04-24T03:46:30;74.65;;;70.30;;
22289;SDS011;11313;50.116;8.424;2023-04-24T03:48:56;95.53;;;90.07;;
22289;SDS011;11313;50.116;8.424;2023-04-24T03:51:21;194.85;;;183.35;;
22289;SDS011;11313;50.116;8.424;2023-04-24T03:53:48;63.38;;;59.80;;
22289;SDS011;11313;50.116;8.424;2023-04-24T03:56:14;48.25;;;45.42;;
22289;SDS011;11313;50.116;8.424;2023-04-24T03:58:39;64.95;;;61.30;;
22289;SDS011;11313;50.116;8.424;2023-04-24T04:01:05;122.05;;;114.68;;
22289;SDS011;11313;50.116;8.424;2023-04-24T04:03:31;105.15;;;99.13;;
22289;SDS011;11313;50.116;8.424;2023-04-24T04:05:56;97.88;;;92.25;;
22289;SDS011;11313;50.116;8.424;2023-04-24T04:08:22;196.55;;;184.95;;
22289;SDS011;11313;50.116;8.424;2023-04-24T04:10:47;76.82;;;72.53;;
22289;SDS011;11313;50.116;8.424;2023-04-24T04:13:13;110.72;;;104.32;;
22289;SDS011;11313;50.116;8.424;2023-04-24T04:15:38;148.35;;;139.85;;
22289;SDS011;11313;50.116;8.424;2023-04-24T04:18:04;154.88;;;145.82;;
22289;SDS011;11313;50.116;8.424;2023-04-24T04:20:30;44.00;;;41.50;;
22289;SDS011;11313;50.116;8.424;2023-04-24T04:22:55;102.85;;;96.95;;
22289;SDS011;11313;50.116;8.424;2023-04-24T04:25:21;140.10;;;131.93;;
22289;SDS011;11313;50.116;8.424;2023-04-24T04:27:47;120.90;;;113.75;;
22289;SDS011;11313;50.116;8.424;2023-04-24T04:30:13;113.80;;;106.93;;
22289;SDS011;11313;50.116;8.424;2023-04-24T04:32:39;35.55;;;33.60;;
22289;SDS011;11313;50.116;8.424;2023-04-24T04:35:04;83.18;;;78.38;;
22289;SDS011;11313;50.116;8.424;2023-04-24T04:37:31;56.53;;;53.30;;
22289;SDS011;11313;50.116;8.424;2023-04-24T04:40:00;83.82;;;78.78;;
22289;SDS011;11313;50.116;8.424;2023-04-24T04:42:31;126.90;;;119.53;;
22289;SDS011;11313;50.116;8.424;2023-04-24T04:44:57;97.75;;;92.00;;
22289;SDS011;11313;50.116;8.424;2023-04-24T04:47:23;42.72;;;40.25;;
22289;SDS011;11313;50.116;8.424;2023-04-24T04:49:48;62.05;;;58.53;;
22289;SDS011;11313;50.116;8.424;2023-04-24T04:52:16;50.05;;;47.17;;
22289;SDS011;11313;50.116;8.424;2023-04-24T04:54:42;62.17;;;58.50;;
22289;SDS011;11313;50.116;8.424;2023-04-24T04:57:07;75.85;;;71.38;;
22289;SDS011;11313;50.116;8.424;2023-04-24T04:59:33;27.23;;;25.73;;
22289;SDS011;11313;50.116;8.424;2023-04-24T05:01:59;28.23;;;26.63;;
22289;SDS011;11313;50.116;8.424;2023-04-24T05:04:25;54.05;;;50.90;;
22289;SDS011;11313;50.116;8.424;2023-04-24T05:06:51;92.55;;;87.15;;
22289;SDS011;11313;50.116;8.424;2023-04-24T05:09:17;74.18;;;69.93;;
22289;SDS011;11313;50.116;8.424;2023-04-24T05:11:42;45.88;;;43.25;;
22289;SDS011;11313;50.116;8.424;2023-04-24T05:14:08;101.85;;;95.88;;
22289;SDS011;11313;50.116;8.424;2023-04-24T05:16:33;69.82;;;65.53;;
22289;SDS011;11313;50.116;8.424;2023-04-24T05:18:59;41.60;;;38.35;;
22289;SDS011;11313;50.116;8.424;2023-04-24T05:21:25;39.72;;;36.85;;
22289;SDS011;11313;50.116;8.424;2023-04-24T05:23:51;82.63;;;77.28;;
22289;SDS011;11313;50.116;8.424;2023-04-24T05:26:17;92.07;;;86.43;;
22289;SDS011;11313;50.116;8.424;2023-04-24T05:28:42;42.55;;;39.35;;
22289;SDS011;11313;50.116;8.424;2023-04-24T05:31:08;69.72;;;65.47;;
22289;SDS011;11313;50.116;8.424;2023-04-24T05:33:33;28.05;;;26.27;;
22289;SDS011;11313;50.116;8.424;2023-04-24T05:35:59;17.95;;;16.50;;
22289;SDS011;11313;50.116;8.424;2023-04-24T05:38:24;13.75;;;12.57;;
22289;SDS011;11313;50.116;8.424;2023-04-24T05:40:50;29.00;;;26.98;;
22289;SDS011;11313;50.116;8.424;2023-04-24T05:43:15;36.05;;;33.50;;
22289;SDS011;11313;50.116;8.424;2023-04-24T05:45:41;15.35;;;14.05;;
22289;SDS011;11313;50.116;8.424;2023-04-24T05:48:06;37.03;;;34.33;;
22289;SDS011;11313;50.116;8.424;2023-04-24T05:50:32;17.98;;;16.30;;
22289;SDS011;11313;50.116;8.424;2023-04-24T05:52:57;6.78;;;5.22;;
22289;SDS011;11313;50.116;8.424;2023-04-24T05:55:24;6.40;;;2.42;;
22289;SDS011;11313;50.116;8.424;2023-04-24T05:57:50;4.60;;;2.63;;
22289;SDS011;11313;50.116;8.424;2023-04-24T06:00:16;3.15;;;2.10;;
22289;SDS011;11313;50.116;8.424;2023-04-24T06:02:44;5.07;;;2.83;;
22289;SDS011;11313;50.116;8.424;2023-04-24T06:05:10;4.25;;;1.75;;
22289;SDS011;11313;50.116;8.424;2023-04-24T06:07:35;3.50;;;2.40;;
22289;SDS011;11313;50.116;8.424;2023-04-24T06:10:01;5.13;;;4.50;;
22289;SDS011;11313;50.116;8.424;2023-04-24T06:12:27;12.07;;;11.15;;
22289;SDS011;11313;50.116;8.424;2023-04-24T06:14:52;7.93;;;7.18;;
22289;SDS011;11313;50.116;8.424;2023-04-24T06:17:19;21.90;;;20.42;;
22289;SDS011;11313;50.116;8.424;2023-04-24T06:19:44;26.92;;;25.20;;
22289;SDS011;11313;50.116;8.424;2023-04-24T06:22:10;20.27;;;18.73;;
22289;SDS011;11313;50.116;8.424;2023-04-24T06:24:35;3.17;;;2.63;;
22289;SDS011;11313;50.116;8.424;2023-04-24T06:27:01;15.20;;;14.02;;
22289;SDS011;11313;50.116;8.424;2023-04-24T06:29:27;5.22;;;4.75;;
22289;SDS011;11313;50.116;8.424;2023-04-24T06:31:53;2.65;;;1.70;;
22289;SDS011;11313;50.116;8.424;2023-04-24T06:34:18;5.22;;;1.80;;
22289;SDS011;11313;50.116;8.424;2023-04-24T06:36:44;4.47;;;4.07;;
22289;SDS011;11313;50.116;8.424;2023-04-24T06:39:09;2.30;;;1.48;;
22289;SDS011;11313;50.116;8.424;2023-04-24T06:41:35;2.50;;;2.15;;
22289;SDS011;11313;50.116;8.424;2023-04-24T06:44:00;11.32;;;10.40;;
22289;SDS011;11313;50.116;8.424;2023-04-24T06:46:26;3.85;;;3.42;;
22289;SDS011;11313;50.116;8.424;2023-04-24T06:48:53;2.63;;;1.77;;
22289;SDS011;11313;50.116;8.424;2023-04-24T06:51:25;4.53;;;2.50;;
22289;SDS011;11313;50.116;8.424;2023-04-24T06:53:51;3.03;;;2.10;;
22289;SDS011;11313;50.116;8.424;2023-04-24T06:56:17;15.95;;;14.73;;
22289;SDS011;11313;50.116;8.424;2023-04-24T06:58:43;1.85;;;1.00;;
22289;SDS011;11313;50.116;8.424;2023-04-24T07:01:08;2.25;;;1.40;;
22289;SDS011;11313;50.116;8.424;2023-04-24T07:03:35;3.47;;;3.15;;
22289;SDS011;11313;50.116;8.424;2023-04-24T07:06:00;2.95;;;1.38;;
22289;SDS011;11313;50.116;8.424;2023-04-24T07:08:26;5.05;;;4.68;;
22289;SDS011;11313;50.116;8.424;2023-04-24T07:10:51;17.63;;;16.33;;
22289;SDS011;11313;50.116;8.424;2023-04-24T07:13:17;8.25;;;7.60;;
22289;SDS011;11313;50.116;8.424;2023-04-24T07:15:42;3.20;;;2.42;;
22289;SDS011;11313;50.116;8.424;2023-04-24T07:18:08;2.90;;;2.63;;
22289;SDS011;11313;50.116;8.424;2023-04-24T07:20:34;4.85;;;4.55;;
22289;SDS011;11313;50.116;8.424;2023-04-24T07:22:59;22.15;;;20.85;;
22289;SDS011;11313;50.116;8.424;2023-04-24T07:25:25;19.92;;;18.52;;
22289;SDS011;11313;50.116;8.424;2023-04-24T07:27:50;25.75;;;24.15;;
22289;SDS011;11313;50.116;8.424;2023-04-24T07:30:16;21.45;;;19.88;;
22289;SDS011;11313;50.116;8.424;2023-04-24T07:32:41;13.05;;;12.20;;
22289;SDS011;11313;50.116;8.424;2023-04-24T07:35:07;11.15;;;10.48;;
22289;SDS011;11313;50.116;8.424;2023-04-24T07:37:34;25.38;;;23.90;;
22289;SDS011;11313;50.116;8.424;2023-04-24T07:40:00;11.57;;;10.80;;
22289;SDS011;11313;50.116;8.424;2023-04-24T07:42:25;4.03;;;3.72;;
22289;SDS011;11313;50.116;8.424;2023-04-24T07:44:51;1.85;;;1.42;;
22289;SDS011;11313;50.116;8.424;2023-04-24T07:47:17;2.22;;;2.13;;
22289;SDS011;11313;50.116;8.424;2023-04-24T07:49:42;4.45;;;2.88;;
22289;SDS011;11313;50.116;8.424;2023-04-24T07:52:08;4.20;;;3.90;;
22289;SDS011;11313;50.116;8.424;2023-04-24T07:54:33;11.07;;;10.25;;
22289;SDS011;11313;50.116;8.424;2023-04-24T07:56:59;2.55;;;2.17;;
22289;SDS011;11313;50.116;8.424;2023-04-24T07:59:25;5.55;;;5.25;;
22289;SDS011;11313;50.116;8.424;2023-04-24T08:01:52;7.50;;;6.97;;
22289;SDS011;11313;50.116;8.424;2023-04-24T08:04:19;3.20;;;2.92;;
22289;SDS011;11313;50.116;8.424;2023-04-24T08:06:44;47.25;;;44.58;;
22289;SDS011;11313;50.116;8.424;2023-04-24T08:09:09;12.48;;;11.65;;
22289;SDS011;11313;50.116;8.424;2023-04-24T08:11:35;1.92;;;1.63;;
22289;SDS011;11313;50.116;8.424;2023-04-24T08:14:01;5.53;;;5.22;;
22289;SDS011;11313;50.116;8.424;2023-04-24T08:16:26;1.83;;;1.60;;
22289;SDS011;11313;50.116;8.424;2023-04-24T08:18:52;3.30;;;3.03;;
22289;SDS011;11313;50.116;8.424;2023-04-24T08:21:18;11.48;;;10.85;;
22289;SDS011;11313;50.116;8.424;2023-04-24T08:23:44;96.45;;;90.82;;
22289;SDS011;11313;50.116;8.424;2023-04-24T08:26:11;81.53;;;76.82;;
22289;SDS011;11313;50.116;8.424;2023-04-24T08:28:36;105.15;;;99.10;;
22289;SDS011;11313;50.116;8.424;2023-04-24T08:31:02;156.93;;;147.73;;
22289;SDS011;11313;50.116;8.424;2023-04-24T08:33:28;94.70;;;89.22;;
22289;SDS011;11313;50.116;8.424;2023-04-24T08:35:59;211.38;;;198.98;;
22289;SDS011;11313;50.116;8.424;2023-04-24T08:38:28;134.48;;;126.75;;
22289;SDS011;11313;50.116;8.424;2023-04-24T08:40:54;17.58;;;16.58;;
22289;SDS011;11313;50.116;8.424;2023-04-24T08:43:24;8.52;;;8.02;;
22289;SDS011;11313;50.116;8.424;2023-04-24T08:45:50;27.85;;;26.33;;
22289;SDS011;11313;50.116;8.424;2023-04-24T08:48:16;134.38;;;126.47;;
22289;SDS011;11313;50.116;8.424;2023-04-24T08:50:43;78.15;;;73.78;;
22289;SDS011;11313;50.116;8.424;2023-04-24T08:53:09;183.90;;;173.18;;
22289;SDS011;11313;50.116;8.424;2023-04-24T08:55:35;154.10;;;145.07;;
22289;SDS011;11313;50.116;8.424;2023-04-24T08:58:02;58.55;;;55.22;;
22289;SDS011;11313;50.116;8.424;2023-04-24T09:00:29;20.60;;;19.48;;
22289;SDS011;11313;50.116;8.424;2023-04-24T09:02:55;11.65;;;11.02;;
22289;SDS011;11313;50.116;8.424;2023-04-24T09:05:22;27.55;;;25.85;;
22289;SDS011;11313;50.116;8.424;2023-04-24T09:07:54;10.40;;;9.82;;
22289;SDS011;11313;50.116;8.424;2023-04-24T09:10:21;16.75;;;15.80;;
22289;SDS011;11313;50.116;8.424;2023-04-24T09:12:49;5.32;;;4.93;;
22289;SDS011;11313;50.116;8.424;2023-04-24T09:15:16;19.10;;;18.05;;
22289;SDS011;11313;50.116;8.424;2023-04-24T09:17:43;4.13;;;3.92;;
22289;SDS011;11313;50.116;8.424;2023-04-24T09:20:09;85.70;;;80.90;;
22289;SDS011;11313;50.116;8.424;2023-04-24T09:22:34;19.88;;;18.83;;
22289;SDS011;11313;50.116;8.424;2023-04-24T09:25:02;37.13;;;35.08;;
22289;SDS011;11313;50.116;8.424;2023-04-24T09:27:30;8.10;;;7.70;;
22289;SDS011;11313;50.116;8.424;2023-04-24T09:29:56;6.53;;;6.20;;
22289;SDS011;11313;50.116;8.424;2023-04-24T09:32:22;5.80;;;5.50;;
22289;SDS011;11313;50.116;8.424;2023-04-24T09:34:50;11.40;;;10.80;;
22289;SDS011;11313;50.116;8.424;2023-04-24T09:37:37;3.88;;;3.67;;
22289;SDS011;11313;50.116;8.424;2023-04-24T09:40:08;9.65;;;9.10;;
22289;SDS011;11313;50.116;8.424;2023-04-24T09:42:36;15.38;;;14.52;;
22289;SDS011;11313;50.116;8.424;2023-04-24T09:45:02;146.98;;;138.52;;
22289;SDS011;11313;50.116;8.424;2023-04-24T09:47:28;164.52;;;155.13;;
22289;SDS011;11313;50.116;8.424;2023-04-24T09:50:08;242.60;;;228.23;;
22289;SDS011;11313;50.116;8.424;2023-04-24T09:52:41;219.57;;;206.43;;
22289;SDS011;11313;50.116;8.424;2023-04-24T09:55:20;228.50;;;215.15;;
22289;SDS011;11313;50.116;8.424;2023-04-24T09:57:52;234.60;;;220.93;;
22289;SDS011;11313;50.116;8.424;2023-04-24T10:00:23;324.90;;;305.40;;
22289;SDS011;11313;50.116;8.424;2023-04-24T10:02:50;330.17;;;310.20;;
22289;SDS011;11313;50.116;8.424;2023-04-24T10:05:18;279.85;;;263.35;;
22289;SDS011;11313;50.116;8.424;2023-04-24T10:07:47;263.50;;;248.18;;
22289;SDS011;11313;50.116;8.424;2023-04-24T10:10:13;229.32;;;215.98;;
22289;SDS011;11313;50.116;8.424;2023-04-24T10:12:39;173.68;;;163.50;;
22289;SDS011;11313;50.116;8.424;2023-04-24T10:15:04;233.02;;;219.52;;
22289;SDS011;11313;50.116;8.424;2023-04-24T10:17:31;342.17;;;321.77;;
22289;SDS011;11313;50.116;8.424;2023-04-24T10:19:57;205.68;;;193.73;;
22289;SDS011;11313;50.116;8.424;2023-04-24T10:22:25;228.20;;;214.85;;
22289;SDS011;11313;50.116;8.424;2023-04-24T10:24:51;340.25;;;319.83;;
22289;SDS011;11313;50.116;8.424;2023-04-24T10:27:17;273.25;;;257.25;;
22289;SDS011;11313;50.116;8.424;2023-04-24T10:29:45;288.85;;;271.75;;
22289;SDS011;11313;50.116;8.424;2023-04-24T10:32:13;365.75;;;343.60;;
22289;SDS011;11313;50.116;8.424;2023-04-24T10:34:38;350.38;;;329.65;;
22289;SDS011;11313;50.116;8.424;2023-04-24T10:37:04;251.05;;;236.35;;
22289;SDS011;11313;50.116;8.424;2023-04-24T10:39:29;338.83;;;318.98;;
22289;SDS011;11313;50.116;8.424;2023-04-24T10:41:58;296.23;;;278.65;;
22289;SDS011;11313;50.116;8.424;2023-04-24T10:44:23;305.67;;;287.60;;
22289;SDS011;11313;50.116;8.424;2023-04-24T10:46:52;319.70;;;300.65;;
22289;SDS011;11313;50.116;8.424;2023-04-24T10:49:29;422.08;;;396.25;;
22289;SDS011;11313;50.116;8.424;2023-04-24T10:52:00;286.05;;;269.05;;
22289;SDS011;11313;50.116;8.424;2023-04-24T10:54:28;310.10;;;291.80;;
22289;SDS011;11313;50.116;8.424;2023-04-24T11:02:46;455.10;;;427.00;;
22289;SDS011;11313;50.116;8.424;2023-04-24T11:05:18;448.45;;;420.65;;
22289;SDS011;11313;50.116;8.424;2023-04-24T11:10:40;396.88;;;372.65;;
22289;SDS011;11313;50.116;8.424;2023-04-24T11:13:09;426.13;;;400.15;;
22289;SDS011;11313;50.116;8.424;2023-04-24T11:15:35;425.27;;;399.13;;
22289;SDS011;11313;50.116;8.424;2023-04-24T11:18:00;326.58;;;307.23;;
22289;SDS011;11313;50.116;8.424;2023-04-24T11:20:26;316.95;;;298.23;;
22289;SDS011;11313;50.116;8.424;2023-04-24T11:22:52;362.30;;;340.30;;
22289;SDS011;11313;50.116;8.424;2023-04-24T11:25:22;411.70;;;386.70;;
22289;SDS011;11313;50.116;8.424;2023-04-24T11:27:48;458.35;;;429.52;;
22289;SDS011;11313;50.116;8.424;2023-04-24T11:30:18;447.88;;;419.80;;
22289;SDS011;11313;50.116;8.424;2023-04-24T11:32:47;450.58;;;422.67;;
22289;SDS011;11313;50.116;8.424;2023-04-24T11:35:16;481.02;;;450.70;;
22289;SDS011;11313;50.116;8.424;2023-04-24T11:37:49;377.08;;;353.70;;
22289;SDS011;11313;50.116;8.424;2023-04-24T11:42:44;310.75;;;291.80;;
22289;SDS011;11313;50.116;8.424;2023-04-24T11:45:11;178.13;;;167.73;;
22289;SDS011;11313;50.116;8.424;2023-04-24T11:47:39;235.75;;;221.68;;
22289;SDS011;11313;50.116;8.424;2023-04-24T11:50:06;326.33;;;306.30;;
22289;SDS011;11313;50.116;8.424;2023-04-24T11:52:33;401.60;;;376.23;;
22289;SDS011;11313;50.116;8.424;2023-04-24T11:55:02;505.45;;;473.02;;
22289;SDS011;11313;50.116;8.424;2023-04-24T11:57:28;492.30;;;460.80;;
22289;SDS011;11313;50.116;8.424;2023-04-24T11:59:58;398.63;;;373.70;;
22289;SDS011;11313;50.116;8.424;2023-04-24T12:02:25;258.42;;;242.85;;
22289;SDS011;11313;50.116;8.424;2023-04-24T12:04:52;245.35;;;230.63;;
22289;SDS011;11313;50.116;8.424;2023-04-24T12:07:18;198.82;;;187.18;;
22289;SDS011;11313;50.116;8.424;2023-04-24T12:09:45;198.32;;;186.43;;
22289;SDS011;11313;50.116;8.424;2023-04-24T12:12:25;187.75;;;176.48;;
22289;SDS011;11313;50.116;8.424;2023-04-24T12:14:57;175.02;;;164.88;;
22289;SDS011;11313;50.116;8.424;2023-04-24T12:17:27;163.60;;;154.25;;
22289;SDS011;11313;50.116;8.424;2023-04-24T12:20:02;159.02;;;149.60;;
22289;SDS011;11313;50.116;8.424;2023-04-24T12:25:16;133.05;;;125.32;;
22289;SDS011;11313;50.116;8.424;2023-04-24T12:27:44;122.50;;;115.40;;
22289;SDS011;11313;50.116;8.424;2023-04-24T12:30:11;140.60;;;132.63;;
22289;SDS011;11313;50.116;8.424;2023-04-24T12:32:42;118.05;;;111.40;;
22289;SDS011;11313;50.116;8.424;2023-04-24T12:35:13;103.32;;;97.53;;
22289;SDS011;11313;50.116;8.424;2023-04-24T12:37:41;161.23;;;152.18;;
22289;SDS011;11313;50.116;8.424;2023-04-24T12:40:09;116.63;;;110.13;;
22289;SDS011;11313;50.116;8.424;2023-04-24T12:42:35;113.82;;;107.47;;
22289;SDS011;11313;50.116;8.424;2023-04-24T12:45:07;98.03;;;92.55;;
22289;SDS011;11313;50.116;8.424;2023-04-24T12:47:33;112.25;;;105.80;;
22289;SDS011;11313;50.116;8.424;2023-04-24T12:50:00;205.40;;;193.65;;
22289;SDS011;11313;50.116;8.424;2023-04-24T12:52:26;108.10;;;101.95;;
22289;SDS011;11313;50.116;8.424;2023-04-24T12:54:53;157.38;;;148.38;;
22289;SDS011;11313;50.116;8.424;2023-04-24T12:57:21;180.57;;;170.50;;
22289;SDS011;11313;50.116;8.424;2023-04-24T12:59:53;238.68;;;225.07;;
22289;SDS011;11313;50.116;8.424;2023-04-24T13:02:19;130.60;;;123.28;;
22289;SDS011;11313;50.116;8.424;2023-04-24T13:04:46;147.07;;;138.70;;
22289;SDS011;11313;50.116;8.424;2023-04-24T13:07:12;150.40;;;141.68;;
22289;SDS011;11313;50.116;8.424;2023-04-24T13:09:39;175.48;;;165.38;;
22289;SDS011;11313;50.116;8.424;2023-04-24T13:12:05;145.43;;;136.93;;
22289;SDS011;11313;50.116;8.424;2023-04-24T13:14:32;258.17;;;243.05;;
22289;SDS011;11313;50.116;8.424;2023-04-24T13:16:57;296.60;;;278.77;;
22289;SDS011;11313;50.116;8.424;2023-04-24T13:19:26;246.63;;;232.32;;
22289;SDS011;11313;50.116;8.424;2023-04-24T13:21:53;289.42;;;272.13;;
22289;SDS011;11313;50.116;8.424;2023-04-24T13:24:20;269.77;;;253.57;;
22289;SDS011;11313;50.116;8.424;2023-04-24T13:26:49;283.00;;;266.20;;
22289;SDS011;11313;50.116;8.424;2023-04-24T13:29:15;188.00;;;176.95;;
22289;SDS011;11313;50.116;8.424;2023-04-24T13:31:40;204.13;;;192.30;;
22289;SDS011;11313;50.116;8.424;2023-04-24T13:34:06;176.20;;;165.80;;
22289;SDS011;11313;50.116;8.424;2023-04-24T13:36:32;174.07;;;164.02;;
22289;SDS011;11313;50.116;8.424;2023-04-24T13:38:57;195.60;;;184.18;;
22289;SDS011;11313;50.116;8.424;2023-04-24T13:41:23;162.25;;;153.10;;
22289;SDS011;11313;50.116;8.424;2023-04-24T13:43:49;146.70;;;138.40;;
22289;SDS011;11313;50.116;8.424;2023-04-24T13:46:14;166.25;;;156.63;;
22289;SDS011;11313;50.116;8.424;2023-04-24T13:48:40;171.10;;;161.20;;
22289;SDS011;11313;50.116;8.424;2023-04-24T13:51:05;175.35;;;165.10;;
22289;SDS011;11313;50.116;8.424;2023-04-24T13:53:31;144.43;;;136.18;;
22289;SDS011;11313;50.116;8.424;2023-04-24T13:55:57;126.75;;;119.53;;
22289;SDS011;11313;50.116;8.424;2023-04-24T13:58:23;145.85;;;137.52;;
22289;SDS011;11313;50.116;8.424;2023-04-24T14:00:48;151.10;;;142.35;;
22289;SDS011;11313;50.116;8.424;2023-04-24T14:03:14;123.57;;;116.63;;
22289;SDS011;11313;50.116;8.424;2023-04-24T14:05:40;102.82;;;97.03;;
22289;SDS011;11313;50.116;8.424;2023-04-24T14:08:05;113.10;;;106.78;;
22289;SDS011;11313;50.116;8.424;2023-04-24T14:10:31;189.13;;;178.30;;
22289;SDS011;11313;50.116;8.424;2023-04-24T14:12:56;140.82;;;132.88;;
22289;SDS011;11313;50.116;8.424;2023-04-24T14:15:22;141.55;;;133.63;;
22289;SDS011;11313;50.116;8.424;2023-04-24T14:17:48;131.02;;;123.55;;
22289;SDS011;11313;50.116;8.424;2023-04-24T14:20:14;150.98;;;142.27;;
22289;SDS011;11313;50.116;8.424;2023-04-24T14:22:40;129.10;;;121.72;;
22289;SDS011;11313;50.116;8.424;2023-04-24T14:25:07;164.23;;;154.68;;